Time;durP1;ratioP1;P1;durP2;ratioP2;P2;SDS_P1;SDS_P2;PMS_P1;PMS_P2;Temp;Humidity;BMP_temperature;BMP_pressure;BME280_temperature;BME280_humidity;BME280_pressure;Samples;Min_cycle;Max_cycle;Signal;HPM_P1;HPM_P2
2023/03/11 00:01:55;;;;;;;2.45;1.15;;;;;;;;;;5104123;28;20379;-43
2023/03/11 00:04:20;;;;;;;2.92;1.13;;;;;;;;;;5103849;28;20027;-43
2023/03/11 00:06:46;;;;;;;2.45;1.15;;;;;;;;;;5103310;28;20032;-43
2023/03/11 00:09:12;;;;;;;2.75;1.40;;;;;;;;;;5083055;28;20020;-45
2023/03/11 00:11:40;;;;;;;2.67;1.45;;;;;;;;;;5103921;28;20498;-43
2023/03/11 00:14:06;;;;;;;4.13;1.80;;;;;;;;;;5104023;28;20484;-43
2023/03/11 00:16:33;;;;;;;3.65;1.55;;;;;;;;;;5103619;28;20024;-43
2023/03/11 00:18:59;;;;;;;3.55;1.90;;;;;;;;;;5103463;28;20023;-44
2023/03/11 00:21:25;;;;;;;3.00;1.58;;;;;;;;;;5104065;28;20023;-44
2023/03/11 00:23:51;;;;;;;2.67;1.67;;;;;;;;;;5104428;28;20388;-43
2023/03/11 00:26:17;;;;;;;4.43;1.83;;;;;;;;;;5104460;28;20132;-43
2023/03/11 00:28:43;;;;;;;4.28;1.83;;;;;;;;;;5102637;28;20175;-43
2023/03/11 00:31:12;;;;;;;2.80;1.73;;;;;;;;;;5103679;28;20090;-43
2023/03/11 00:33:39;;;;;;;2.67;1.48;;;;;;;;;;5103727;28;20016;-43
2023/03/11 00:36:05;;;;;;;4.32;1.60;;;;;;;;;;5107307;28;20335;-43
2023/03/11 00:38:32;;;;;;;4.50;1.70;;;;;;;;;;5107654;28;20020;-43
2023/03/11 00:41:00;;;;;;;3.75;1.55;;;;;;;;;;5107809;28;20098;-42
2023/03/11 00:43:27;;;;;;;2.67;1.50;;;;;;;;;;5107190;28;20020;-43
2023/03/11 00:45:53;;;;;;;2.30;1.40;;;;;;;;;;5107743;28;20076;-43
2023/03/11 00:48:20;;;;;;;2.97;1.30;;;;;;;;;;5107592;28;20027;-44
2023/03/11 00:50:47;;;;;;;2.40;1.23;;;;;;;;;;5107650;28;20057;-43
2023/03/11 00:53:13;;;;;;;4.97;1.98;;;;;;;;;;5107184;28;20031;-43
2023/03/11 00:55:39;;;;;;;1.65;1.15;;;;;;;;;;5107613;28;20020;-42
2023/03/11 00:58:06;;;;;;;2.58;1.35;;;;;;;;;;5108551;28;20027;-43
2023/03/11 01:00:34;;;;;;;3.33;1.60;;;;;;;;;;5108319;28;20114;-43
2023/03/11 01:03:01;;;;;;;2.30;1.30;;;;;;;;;;5108146;28;20105;-42
2023/03/11 06:10:35;;;;;;;1.27;0.90;;;;;;;;;;5127733;27;20139;-44
2023/03/11 06:13:01;;;;;;;0.80;0.80;;;;;;;;;;5128155;27;20023;-43
2023/03/11 06:15:26;;;;;;;0.82;0.60;;;;;;;;;;5128730;27;20399;-43
2023/03/11 06:17:53;;;;;;;0.68;0.68;;;;;;;;;;5128847;27;20035;-44
2023/03/11 06:20:20;;;;;;;0.82;0.70;;;;;;;;;;5128518;27;20035;-42
2023/03/11 06:22:49;;;;;;;0.88;0.80;;;;;;;;;;5128762;27;20409;-43
2023/03/11 06:25:15;;;;;;;1.00;0.70;;;;;;;;;;5129068;27;20521;-43
2023/03/11 06:27:43;;;;;;;1.48;0.95;;;;;;;;;;5128855;27;20022;-44
2023/03/11 06:30:10;;;;;;;0.82;0.70;;;;;;;;;;5127798;27;20429;-44
2023/03/11 06:32:36;;;;;;;0.70;0.65;;;;;;;;;;5128739;27;20102;-44
2023/03/11 06:35:02;;;;;;;1.08;0.98;;;;;;;;;;5128408;27;20060;-44
2023/03/11 06:37:28;;;;;;;0.95;0.70;;;;;;;;;;5128958;27;20484;-43
2023/03/11 06:39:54;;;;;;;0.47;0.47;;;;;;;;;;5129043;27;20058;-43
2023/03/11 06:42:22;;;;;;;0.60;0.40;;;;;;;;;;5128576;27;20424;-44
2023/03/11 06:44:49;;;;;;;0.40;0.40;;;;;;;;;;5128525;27;20049;-44
2023/03/11 06:47:15;;;;;;;0.60;0.60;;;;;;;;;;5128421;27;20031;-43
2023/03/11 06:49:42;;;;;;;1.02;0.50;;;;;;;;;;5128882;27;20084;-44
2023/03/11 06:52:09;;;;;;;0.52;0.45;;;;;;;;;;5128767;27;20019;-44
2023/03/11 06:54:35;;;;;;;0.50;0.50;;;;;;;;;;5128099;27;20026;-43
2023/03/11 06:57:01;;;;;;;0.60;0.60;;;;;;;;;;5128188;27;20452;-46
2023/03/11 06:59:27;;;;;;;2.58;1.40;;;;;;;;;;5128306;27;20035;-43
2023/03/11 07:01:54;;;;;;;2.55;1.75;;;;;;;;;;5128040;27;20269;-43
2023/03/11 07:04:21;;;;;;;1.88;1.50;;;;;;;;;;5128313;27;20402;-44
2023/03/11 07:06:47;;;;;;;2.75;1.70;;;;;;;;;;5128202;27;20126;-45
2023/03/11 07:09:13;;;;;;;2.80;1.85;;;;;;;;;;5128119;27;20102;-43
2023/03/11 07:11:39;;;;;;;4.53;2.50;;;;;;;;;;5127979;27;20027;-45
2023/03/11 07:14:05;;;;;;;5.35;2.28;;;;;;;;;;5128194;27;20042;-45
2023/03/11 07:16:32;;;;;;;3.00;1.90;;;;;;;;;;5128017;27;20020;-45
2023/03/11 07:19:01;;;;;;;2.05;1.42;;;;;;;;;;5127955;27;20037;-46
2023/03/11 07:21:28;;;;;;;1.65;1.23;;;;;;;;;;5127041;27;20030;-44
2023/03/11 07:23:54;;;;;;;1.95;1.23;;;;;;;;;;5129039;27;20087;-43
2023/03/11 07:26:21;;;;;;;0.90;0.80;;;;;;;;;;5128337;27;20060;-43
2023/03/11 07:28:48;;;;;;;1.05;0.95;;;;;;;;;;5127892;27;20063;-44
2023/03/11 07:31:22;;;;;;;0.90;0.80;;;;;;;;;;5108509;28;20062;-44
2023/03/11 07:33:48;;;;;;;1.55;1.13;;;;;;;;;;5128891;27;20023;-44
2023/03/11 07:36:16;;;;;;;1.10;0.90;;;;;;;;;;5129127;27;20031;-45
2023/03/11 07:38:43;;;;;;;1.33;1.00;;;;;;;;;;5129419;27;20062;-45
2023/03/11 07:41:12;;;;;;;0.63;0.63;;;;;;;;;;5128460;28;20041;-44
2023/03/11 07:43:38;;;;;;;1.13;0.82;;;;;;;;;;5128798;27;20031;-46
2023/03/11 07:46:08;;;;;;;0.80;0.80;;;;;;;;;;5127489;28;20103;-45
2023/03/11 07:48:35;;;;;;;0.73;0.70;;;;;;;;;;5129223;28;20173;-45
2023/03/11 07:51:05;;;;;;;1.00;0.88;;;;;;;;;;5127024;28;20038;-46
2023/03/11 07:53:33;;;;;;;1.10;0.85;;;;;;;;;;5126483;27;20024;-46
2023/03/11 07:55:59;;;;;;;0.60;0.60;;;;;;;;;;5122821;28;20034;-46
2023/03/11 07:58:25;;;;;;;0.55;0.55;;;;;;;;;;5128695;28;20031;-45
2023/03/11 08:00:51;;;;;;;0.40;0.40;;;;;;;;;;5128123;28;20034;-44
2023/03/11 08:03:18;;;;;;;0.40;0.40;;;;;;;;;;5127475;28;20033;-47
2023/03/11 08:05:44;;;;;;;0.55;0.50;;;;;;;;;;5110384;28;20035;-46
2023/03/11 08:08:10;;;;;;;0.40;0.40;;;;;;;;;;5127652;28;20055;-45
2023/03/11 08:10:36;;;;;;;0.47;0.47;;;;;;;;;;5126654;28;20123;-44
2023/03/11 08:13:04;;;;;;;0.40;0.40;;;;;;;;;;5125284;28;20026;-46
2023/03/11 08:15:31;;;;;;;0.40;0.40;;;;;;;;;;5123997;27;20037;-45
2023/03/11 08:17:58;;;;;;;0.40;0.40;;;;;;;;;;5116229;28;20035;-45
2023/03/11 08:20:24;;;;;;;0.40;0.40;;;;;;;;;;5126322;27;20045;-45
2023/03/11 08:22:50;;;;;;;0.40;0.40;;;;;;;;;;5125341;28;20023;-47
2023/03/11 08:25:16;;;;;;;0.80;0.70;;;;;;;;;;5124769;27;20031;-47
2023/03/11 08:27:42;;;;;;;0.75;0.75;;;;;;;;;;5126112;28;20038;-46
2023/03/11 08:30:09;;;;;;;0.50;0.50;;;;;;;;;;5125589;27;20035;-44
2023/03/11 08:32:35;;;;;;;0.52;0.52;;;;;;;;;;5127001;28;20390;-46
2023/03/11 08:35:01;;;;;;;0.60;0.60;;;;;;;;;;5126580;27;20440;-46
2023/03/11 08:37:27;;;;;;;0.50;0.50;;;;;;;;;;5126804;28;20459;-46
2023/03/11 08:39:53;;;;;;;1.00;0.82;;;;;;;;;;5125650;28;20035;-46
2023/03/11 08:42:19;;;;;;;0.73;0.73;;;;;;;;;;5124788;27;20027;-45
2023/03/11 08:44:46;;;;;;;0.60;0.60;;;;;;;;;;5125157;28;20407;-45
2023/03/11 08:47:12;;;;;;;0.77;0.73;;;;;;;;;;5124489;28;20061;-47
2023/03/11 08:49:39;;;;;;;0.65;0.60;;;;;;;;;;5125363;27;20485;-46
2023/03/11 08:52:05;;;;;;;0.80;0.75;;;;;;;;;;5125053;28;20375;-46
2023/03/11 08:54:32;;;;;;;0.68;0.68;;;;;;;;;;5125176;27;20031;-47
2023/03/11 08:57:01;;;;;;;0.63;0.63;;;;;;;;;;5126309;27;20027;-46
2023/03/11 08:59:28;;;;;;;0.65;0.55;;;;;;;;;;5129039;27;20182;-49
2023/03/11 09:01:54;;;;;;;0.90;0.80;;;;;;;;;;5129161;27;20034;-46
2023/03/11 09:04:20;;;;;;;0.70;0.60;;;;;;;;;;5128497;27;20118;-48
2023/03/11 09:06:47;;;;;;;0.70;0.70;;;;;;;;;;5128340;27;20023;-46
2023/03/11 09:09:20;;;;;;;0.40;0.40;;;;;;;;;;5128582;27;20056;-48
2023/03/11 09:11:47;;;;;;;0.90;0.80;;;;;;;;;;5128846;27;20438;-44
2023/03/11 09:14:14;;;;;;;0.98;0.90;;;;;;;;;;5126990;27;20413;-45
2023/03/11 09:16:41;;;;;;;0.80;0.80;;;;;;;;;;5128231;27;20049;-46
2023/03/11 09:19:07;;;;;;;0.85;0.70;;;;;;;;;;5127805;27;20524;-47
2023/03/11 09:21:34;;;;;;;0.70;0.70;;;;;;;;;;5127874;27;20443;-43
2023/03/11 09:24:00;;;;;;;0.70;0.70;;;;;;;;;;5128359;27;20035;-46
2023/03/11 09:26:26;;;;;;;0.65;0.65;;;;;;;;;;5128577;27;20028;-43
2023/03/11 09:28:52;;;;;;;0.57;0.55;;;;;;;;;;5129230;27;20062;-46
2023/03/11 09:31:18;;;;;;;0.80;0.80;;;;;;;;;;5128470;27;20661;-43
2023/03/11 09:33:45;;;;;;;0.75;0.75;;;;;;;;;;5128217;27;20510;-45
2023/03/11 09:36:15;;;;;;;0.80;0.75;;;;;;;;;;5126737;27;20110;-47
2023/03/11 09:38:43;;;;;;;0.75;0.60;;;;;;;;;;5128108;27;20027;-43
2023/03/11 09:41:18;;;;;;;0.60;0.60;;;;;;;;;;5128150;27;20112;-46
2023/03/11 09:44:08;;;;;;;0.60;0.60;;;;;;;;;;5127618;27;20030;-46
2023/03/11 09:46:49;;;;;;;0.75;0.75;;;;;;;;;;5128015;27;20119;-47
2023/03/11 09:49:22;;;;;;;0.80;0.80;;;;;;;;;;5127788;27;20043;-45
2023/03/11 09:52:11;;;;;;;0.70;0.70;;;;;;;;;;5127659;27;20106;-46
2023/03/11 09:54:42;;;;;;;0.80;0.80;;;;;;;;;;5100513;27;20043;-46
2023/03/11 09:57:11;;;;;;;0.70;0.70;;;;;;;;;;5126919;27;20030;-48
2023/03/11 09:59:39;;;;;;;0.98;0.98;;;;;;;;;;5127794;27;20035;-45
2023/03/11 10:02:05;;;;;;;1.58;1.02;;;;;;;;;;5127431;27;20031;-46
2023/03/11 10:04:34;;;;;;;1.50;1.00;;;;;;;;;;5128615;27;20102;-46
2023/03/11 10:07:01;;;;;;;0.95;0.95;;;;;;;;;;5128766;27;20029;-46
2023/03/11 10:09:30;;;;;;;1.52;1.35;;;;;;;;;;5128659;27;20543;-47
2023/03/11 10:11:59;;;;;;;1.77;1.55;;;;;;;;;;5128825;27;20027;-46
2023/03/11 10:14:35;;;;;;;1.80;1.70;;;;;;;;;;5117398;27;20487;-46
2023/03/11 10:17:10;;;;;;;2.08;1.88;;;;;;;;;;5108531;28;20486;-45
2023/03/11 10:19:39;;;;;;;1.52;1.30;;;;;;;;;;5108779;28;20040;-45
2023/03/11 10:22:12;;;;;;;2.70;1.80;;;;;;;;;;5120428;27;20038;-49
2023/03/11 10:24:39;;;;;;;2.30;2.10;;;;;;;;;;5128649;27;20576;-47
2023/03/11 10:27:28;;;;;;;2.03;1.83;;;;;;;;;;5128895;27;20106;-48
2023/03/11 10:29:58;;;;;;;2.47;2.28;;;;;;;;;;5115727;27;20538;-46
2023/03/11 10:32:27;;;;;;;2.40;2.20;;;;;;;;;;5110876;27;20023;-45
2023/03/11 10:35:23;;;;;;;2.13;1.98;;;;;;;;;;5127321;27;20019;-46
2023/03/11 10:37:58;;;;;;;2.13;1.92;;;;;;;;;;5100003;27;20353;-46
2023/03/11 10:40:31;;;;;;;2.40;1.77;;;;;;;;;;5127290;27;20027;-44
2023/03/11 10:43:01;;;;;;;2.33;2.13;;;;;;;;;;5126215;27;20503;-46
2023/03/11 10:45:28;;;;;;;2.20;2.00;;;;;;;;;;5126968;27;20034;-45
2023/03/11 10:47:56;;;;;;;2.40;2.20;;;;;;;;;;5126169;27;20087;-46
2023/03/11 10:50:22;;;;;;;2.45;2.20;;;;;;;;;;5126774;27;20059;-45
2023/03/11 10:53:24;;;;;;;2.15;1.95;;;;;;;;;;5126550;27;20039;-46
2023/03/11 10:55:52;;;;;;;1.90;1.70;;;;;;;;;;5062117;28;20025;-46
2023/03/11 10:58:22;;;;;;;1.90;1.80;;;;;;;;;;5109397;27;20043;-45
2023/03/11 11:01:07;;;;;;;1.83;1.23;;;;;;;;;;5126157;27;20524;-46
2023/03/11 11:03:33;;;;;;;;;;;;;;;;;;5126863;27;20035;-45
2023/03/11 11:06:02;;;;;;;1.40;1.30;;;;;;;;;;5126520;27;19918;-45
2023/03/11 11:08:28;;;;;;;1.35;1.25;;;;;;;;;;5126459;27;20027;-45
2023/03/11 11:10:55;;;;;;;1.48;1.38;;;;;;;;;;5125907;27;20083;-45
2023/03/11 11:13:25;;;;;;;1.30;1.20;;;;;;;;;;5125684;27;20459;-45
2023/03/11 11:15:53;;;;;;;1.30;1.20;;;;;;;;;;5126102;27;20030;-45
2023/03/11 11:18:19;;;;;;;1.05;1.02;;;;;;;;;;5126136;27;20033;-47
2023/03/11 11:20:56;;;;;;;1.00;1.00;;;;;;;;;;5126629;27;20035;-48
2023/03/11 11:23:26;;;;;;;1.02;1.02;;;;;;;;;;5126105;27;20107;-45
2023/03/11 11:25:57;;;;;;;0.90;0.90;;;;;;;;;;5126051;27;20046;-47
2023/03/11 11:28:24;;;;;;;1.35;1.25;;;;;;;;;;5125707;27;20023;-44
2023/03/11 11:30:53;;;;;;;1.08;1.00;;;;;;;;;;5125629;27;20101;-44
2023/03/11 11:33:22;;;;;;;0.93;0.93;;;;;;;;;;5125482;27;20098;-44
2023/03/11 11:35:49;;;;;;;0.80;0.80;;;;;;;;;;5123644;27;20091;-44
2023/03/11 11:38:15;;;;;;;1.10;1.10;;;;;;;;;;5124391;27;20046;-43
2023/03/11 11:40:41;;;;;;;1.30;1.20;;;;;;;;;;5126438;27;20536;-44
2023/03/11 11:43:24;;;;;;;1.30;1.20;;;;;;;;;;5128561;27;20020;-43
2023/03/11 11:45:55;;;;;;;1.40;1.30;;;;;;;;;;5127364;27;20031;-46
2023/03/11 11:48:24;;;;;;;2.25;1.63;;;;;;;;;;5139966;27;20047;-43
2023/03/11 11:50:56;;;;;;;2.22;1.50;;;;;;;;;;5119323;28;20040;-44
2023/03/11 11:53:25;;;;;;;2.30;1.70;;;;;;;;;;5127919;28;20031;-44
2023/03/11 11:55:52;;;;;;;2.63;1.77;;;;;;;;;;5127748;28;20031;-46
2023/03/11 11:58:19;;;;;;;2.20;1.67;;;;;;;;;;5128018;28;20080;-44
2023/03/11 12:00:49;;;;;;;2.30;1.70;;;;;;;;;;5128508;28;20042;-44
2023/03/11 12:03:16;;;;;;;1.65;1.45;;;;;;;;;;5126126;28;20023;-45
2023/03/11 12:05:56;;;;;;;2.00;1.77;;;;;;;;;;5128316;28;20046;-44
2023/03/11 12:08:30;;;;;;;1.70;1.33;;;;;;;;;;5123892;28;20027;-44
2023/03/11 12:11:00;;;;;;;1.40;1.30;;;;;;;;;;5125911;28;20029;-45
2023/03/11 12:13:29;;;;;;;1.23;1.13;;;;;;;;;;5124217;28;20027;-47
2023/03/11 12:16:05;;;;;;;1.10;1.00;;;;;;;;;;5127026;28;20094;-44
2023/03/11 12:18:43;;;;;;;1.27;1.17;;;;;;;;;;5127999;28;20486;-46
2023/03/11 12:21:22;;;;;;;1.85;1.42;;;;;;;;;;5128390;28;20031;-45
2023/03/11 12:24:24;;;;;;;1.52;1.25;;;;;;;;;;5110229;28;20034;-47
2023/03/11 12:26:51;;;;;;;1.85;1.40;;;;;;;;;;5063299;28;20032;-44
2023/03/11 12:29:33;;;;;;;1.80;1.58;;;;;;;;;;5115103;28;20045;-44
2023/03/11 12:32:01;;;;;;;1.27;1.13;;;;;;;;;;5130561;27;20027;-43
2023/03/11 12:34:27;;;;;;;1.35;1.25;;;;;;;;;;5130109;27;20035;-45
2023/03/11 12:37:03;;;;;;;1.10;1.10;;;;;;;;;;5131086;27;20023;-47
2023/03/11 12:39:33;;;;;;;1.05;1.05;;;;;;;;;;5141421;27;20131;-44
2023/03/11 12:42:11;;;;;;;1.00;1.00;;;;;;;;;;5131301;27;20037;-46
2023/03/11 12:44:38;;;;;;;1.10;1.10;;;;;;;;;;5131397;27;20038;-44
2023/03/11 12:47:07;;;;;;;1.30;1.20;;;;;;;;;;5131517;27;20023;-45
2023/03/11 12:49:34;;;;;;;0.93;0.82;;;;;;;;;;5129521;27;20023;-44
2023/03/11 12:52:01;;;;;;;1.27;1.17;;;;;;;;;;5130294;27;20027;-43
2023/03/11 12:54:28;;;;;;;1.70;1.20;;;;;;;;;;5131323;27;20036;-44
2023/03/11 12:56:55;;;;;;;1.23;1.13;;;;;;;;;;5131502;27;20020;-43
2023/03/11 12:59:39;;;;;;;0.98;0.90;;;;;;;;;;5128189;27;20032;-45
2023/03/11 13:02:24;;;;;;;1.35;1.25;;;;;;;;;;5121045;27;20031;-44
2023/03/11 13:04:56;;;;;;;1.10;1.02;;;;;;;;;;5130594;27;20058;-43
2023/03/11 13:07:24;;;;;;;1.30;1.20;;;;;;;;;;5130430;27;20035;-43
2023/03/11 13:10:20;;;;;;;1.42;1.20;;;;;;;;;;5112083;27;20468;-44
2023/03/11 13:12:46;;;;;;;1.20;1.10;;;;;;;;;;5108642;27;20258;-44
2023/03/11 13:15:20;;;;;;;1.10;1.00;;;;;;;;;;5130089;27;20153;-46
2023/03/11 13:17:57;;;;;;;1.20;1.10;;;;;;;;;;5123974;27;20023;-46
2023/03/11 13:20:41;;;;;;;0.90;0.90;;;;;;;;;;5112636;27;20030;-44
2023/03/11 13:23:13;;;;;;;1.20;1.10;;;;;;;;;;5120018;27;20035;-45
2023/03/11 13:25:41;;;;;;;0.82;0.82;;;;;;;;;;5129895;27;20019;-46
2023/03/11 13:28:07;;;;;;;1.35;1.25;;;;;;;;;;5129399;27;20106;-43
2023/03/11 13:30:35;;;;;;;1.15;1.00;;;;;;;;;;5129897;27;20147;-47
2023/03/11 13:33:22;;;;;;;1.10;1.00;;;;;;;;;;5129506;27;20031;-44
2023/03/11 13:35:58;;;;;;;0.80;0.80;;;;;;;;;;5109931;28;20032;-45
2023/03/11 13:38:24;;;;;;;1.35;1.08;;;;;;;;;;5109622;27;20035;-46
2023/03/11 13:40:51;;;;;;;1.08;0.80;;;;;;;;;;5109405;28;20032;-43
2023/03/11 13:43:22;;;;;;;1.30;1.20;;;;;;;;;;5108790;28;20043;-46
2023/03/11 13:45:50;;;;;;;0.82;0.82;;;;;;;;;;5109627;28;20035;-43
2023/03/11 13:48:23;;;;;;;1.08;0.95;;;;;;;;;;5111370;27;20035;-46
2023/03/11 13:50:59;;;;;;;0.90;0.90;;;;;;;;;;5127958;27;20445;-43
2023/03/11 13:53:38;;;;;;;0.98;0.90;;;;;;;;;;5125657;27;20027;-44
2023/03/11 13:56:04;;;;;;;0.70;0.70;;;;;;;;;;5126567;27;20398;-44
2023/03/11 13:58:30;;;;;;;0.68;0.68;;;;;;;;;;5127291;27;20023;-44
2023/03/11 14:01:00;;;;;;;0.98;0.95;;;;;;;;;;5127095;27;20027;-44
2023/03/11 14:03:28;;;;;;;0.90;0.77;;;;;;;;;;5127830;27;20062;-45
2023/03/11 14:06:02;;;;;;;0.80;0.80;;;;;;;;;;5125341;27;20485;-46
2023/03/11 14:08:30;;;;;;;0.77;0.77;;;;;;;;;;5126755;27;20035;-45
2023/03/11 14:11:03;;;;;;;0.93;0.93;;;;;;;;;;5124212;27;20035;-45
2023/03/11 14:13:31;;;;;;;0.80;0.80;;;;;;;;;;5104923;28;20032;-45
2023/03/11 14:16:01;;;;;;;1.30;1.20;;;;;;;;;;5117891;27;20603;-45
2023/03/11 14:18:30;;;;;;;0.95;0.95;;;;;;;;;;5125971;27;20106;-45
2023/03/11 14:20:57;;;;;;;1.10;1.00;;;;;;;;;;5125296;27;20114;-45
2023/03/11 14:23:25;;;;;;;1.33;1.23;;;;;;;;;;5125995;27;20031;-49
2023/03/11 14:25:58;;;;;;;0.95;0.95;;;;;;;;;;5126278;27;20031;-44
2023/03/11 14:28:25;;;;;;;1.10;1.10;;;;;;;;;;5125534;27;20030;-45
2023/03/11 14:30:55;;;;;;;1.05;0.98;;;;;;;;;;5126101;27;20139;-44
2023/03/11 14:33:22;;;;;;;0.77;0.77;;;;;;;;;;5125083;27;20066;-45
2023/03/11 14:35:55;;;;;;;0.90;0.90;;;;;;;;;;5125691;27;20055;-45
2023/03/11 14:38:24;;;;;;;1.70;1.02;;;;;;;;;;5125692;27;20070;-48
2023/03/11 14:40:54;;;;;;;1.95;1.05;;;;;;;;;;5126327;27;20492;-45
2023/03/11 14:43:20;;;;;;;2.10;1.33;;;;;;;;;;5125778;27;20108;-45
2023/03/11 14:45:48;;;;;;;1.90;1.33;;;;;;;;;;5126128;27;20438;-46
2023/03/11 14:48:18;;;;;;;1.73;1.23;;;;;;;;;;5124762;27;20029;-44
2023/03/11 14:50:48;;;;;;;1.83;1.45;;;;;;;;;;5124868;27;20553;-46
2023/03/11 14:53:14;;;;;;;1.30;1.20;;;;;;;;;;5124917;27;20072;-45
2023/03/11 14:55:49;;;;;;;1.42;1.15;;;;;;;;;;5124201;27;20328;-46
2023/03/11 14:58:22;;;;;;;1.13;1.00;;;;;;;;;;5125320;27;20055;-46
2023/03/11 15:01:08;;;;;;;1.35;1.10;;;;;;;;;;5125742;27;20122;-44
2023/03/11 15:03:40;;;;;;;1.00;0.95;;;;;;;;;;5122228;27;20082;-45
2023/03/11 15:06:09;;;;;;;1.35;1.15;;;;;;;;;;5124379;27;20031;-45
2023/03/11 15:08:37;;;;;;;1.85;1.50;;;;;;;;;;5123766;27;20126;-44
2023/03/11 15:11:03;;;;;;;2.13;1.52;;;;;;;;;;5123389;27;20118;-45
2023/03/11 15:13:29;;;;;;;1.95;1.50;;;;;;;;;;5122888;27;20042;-46
2023/03/11 15:15:59;;;;;;;3.42;2.10;;;;;;;;;;5124066;27;20015;-45
2023/03/11 15:18:28;;;;;;;3.10;2.00;;;;;;;;;;5123574;27;20517;-47
2023/03/11 15:21:27;;;;;;;2.60;1.83;;;;;;;;;;5122771;27;20042;-45
2023/03/11 15:24:00;;;;;;;2.40;1.80;;;;;;;;;;5089120;27;20085;-45
2023/03/11 15:26:28;;;;;;;2.28;1.80;;;;;;;;;;5124293;27;20041;-46
2023/03/11 15:28:58;;;;;;;2.10;1.70;;;;;;;;;;5120180;27;20027;-44
2023/03/11 15:31:24;;;;;;;1.40;1.30;;;;;;;;;;5124203;27;20011;-47
2023/03/11 15:33:50;;;;;;;2.20;1.60;;;;;;;;;;5127561;27;20031;-45
2023/03/11 15:36:46;;;;;;;1.60;1.35;;;;;;;;;;5125310;27;20029;-47
2023/03/11 15:39:19;;;;;;;1.88;1.48;;;;;;;;;;5102107;27;20039;-45
2023/03/11 15:41:58;;;;;;;1.40;1.30;;;;;;;;;;5124723;27;20023;-46
2023/03/11 15:44:24;;;;;;;1.10;1.00;;;;;;;;;;5135927;27;20028;-45
2023/03/11 15:46:50;;;;;;;1.33;1.23;;;;;;;;;;5103827;28;20031;-44
2023/03/11 15:49:16;;;;;;;1.20;1.10;;;;;;;;;;5116241;28;20023;-45
2023/03/11 15:51:42;;;;;;;1.30;1.20;;;;;;;;;;5124984;28;20029;-45
2023/03/11 15:54:09;;;;;;;1.08;0.98;;;;;;;;;;5124655;28;20041;-45
2023/03/11 15:56:35;;;;;;;0.85;0.85;;;;;;;;;;5125224;28;20335;-45
2023/03/11 15:59:01;;;;;;;1.00;1.00;;;;;;;;;;5124549;28;20102;-45
2023/03/11 16:01:28;;;;;;;1.10;1.00;;;;;;;;;;5123201;27;20126;-44
2023/03/11 16:03:54;;;;;;;1.27;1.17;;;;;;;;;;5122787;27;20027;-44
2023/03/11 16:06:23;;;;;;;1.20;1.10;;;;;;;;;;5126673;27;20501;-45
2023/03/11 16:08:49;;;;;;;1.20;1.10;;;;;;;;;;5129305;27;20063;-44
2023/03/11 16:11:15;;;;;;;1.13;1.02;;;;;;;;;;5128307;27;20055;-45
2023/03/11 16:13:41;;;;;;;0.70;0.70;;;;;;;;;;5128296;27;20042;-45
2023/03/11 16:16:16;;;;;;;0.80;0.80;;;;;;;;;;5126548;27;20247;-46
2023/03/11 16:18:42;;;;;;;1.08;0.95;;;;;;;;;;5126479;27;20033;-47
2023/03/11 16:21:11;;;;;;;0.70;0.70;;;;;;;;;;5126867;27;20115;-46
2023/03/11 16:23:37;;;;;;;0.70;0.70;;;;;;;;;;5127485;27;20039;-44
2023/03/11 16:26:07;;;;;;;1.20;0.93;;;;;;;;;;5127100;27;20019;-45
2023/03/11 16:28:33;;;;;;;0.95;0.90;;;;;;;;;;5128154;27;20027;-48
2023/03/11 16:30:59;;;;;;;0.98;0.70;;;;;;;;;;5128228;27;20038;-47
2023/03/11 16:33:25;;;;;;;1.30;1.02;;;;;;;;;;5127546;27;20027;-45
2023/03/11 16:35:51;;;;;;;2.40;2.20;;;;;;;;;;5128398;27;20050;-45
2023/03/11 16:38:19;;;;;;;2.17;1.98;;;;;;;;;;5126603;27;20121;-46
2023/03/11 16:40:45;;;;;;;1.80;1.70;;;;;;;;;;5127010;27;20155;-47
2023/03/11 16:43:13;;;;;;;1.38;1.27;;;;;;;;;;5128332;27;20031;-46
2023/03/11 16:45:39;;;;;;;1.30;1.20;;;;;;;;;;5126781;27;20023;-45
2023/03/11 16:48:06;;;;;;;1.35;1.25;;;;;;;;;;5127677;27;20031;-44
2023/03/11 16:50:33;;;;;;;1.25;1.13;;;;;;;;;;5127759;27;20038;-46
2023/03/11 16:52:59;;;;;;;1.10;1.00;;;;;;;;;;5127090;27;20096;-45
2023/03/11 16:55:27;;;;;;;1.45;1.10;;;;;;;;;;5127150;27;20019;-46
2023/03/11 16:57:54;;;;;;;1.80;1.50;;;;;;;;;;5127480;27;20073;-45
2023/03/11 17:00:20;;;;;;;1.88;1.67;;;;;;;;;;5127184;27;20026;-46
2023/03/11 17:02:46;;;;;;;2.17;1.85;;;;;;;;;;5127640;27;20087;-45
2023/03/11 17:05:12;;;;;;;1.60;1.20;;;;;;;;;;5127363;27;20106;-45
2023/03/11 17:07:39;;;;;;;1.27;1.17;;;;;;;;;;5127627;27;20035;-46
2023/03/11 17:10:05;;;;;;;1.30;1.20;;;;;;;;;;5128103;27;20390;-44
2023/03/11 17:12:31;;;;;;;1.20;1.10;;;;;;;;;;5126761;27;20052;-44
2023/03/11 17:14:57;;;;;;;1.13;1.08;;;;;;;;;;5126947;27;20322;-45
2023/03/11 17:17:23;;;;;;;0.93;0.93;;;;;;;;;;5124843;27;20410;-45
2023/03/11 17:19:51;;;;;;;0.93;0.90;;;;;;;;;;5128183;27;20106;-46
2023/03/11 17:22:16;;;;;;;0.85;0.85;;;;;;;;;;5126731;27;20443;-45
2023/03/11 17:24:42;;;;;;;1.67;1.00;;;;;;;;;;5124920;27;20079;-44
2023/03/11 17:27:09;;;;;;;1.70;1.15;;;;;;;;;;5128376;27;20122;-46
2023/03/11 17:29:35;;;;;;;1.73;1.17;;;;;;;;;;5125498;27;20034;-44
2023/03/11 17:32:01;;;;;;;1.67;1.20;;;;;;;;;;5123493;27;20538;-45
2023/03/11 17:34:28;;;;;;;1.10;1.00;;;;;;;;;;5125934;27;20446;-45
2023/03/11 17:36:55;;;;;;;1.50;1.30;;;;;;;;;;5126156;27;20376;-45
2023/03/11 17:39:21;;;;;;;1.63;1.40;;;;;;;;;;5127929;27;20410;-45
2023/03/11 17:41:47;;;;;;;1.75;1.50;;;;;;;;;;5128008;27;20038;-45
2023/03/11 17:44:13;;;;;;;2.67;2.13;;;;;;;;;;5127048;27;20027;-44
2023/03/11 17:46:40;;;;;;;2.30;1.75;;;;;;;;;;5127200;27;20038;-44
2023/03/11 17:49:07;;;;;;;2.45;1.98;;;;;;;;;;5125598;27;20047;-45
2023/03/11 17:51:33;;;;;;;2.70;2.20;;;;;;;;;;5126275;27;20039;-45
2023/03/11 17:54:00;;;;;;;3.67;2.50;;;;;;;;;;5126899;27;20039;-45
2023/03/11 17:56:26;;;;;;;3.95;2.45;;;;;;;;;;5127051;27;20534;-45
2023/03/11 17:58:52;;;;;;;3.45;2.58;;;;;;;;;;5126777;27;20035;-47
2023/03/11 18:01:22;;;;;;;3.58;2.50;;;;;;;;;;5126342;27;20034;-45
2023/03/11 18:03:49;;;;;;;3.53;2.88;;;;;;;;;;5127617;27;20452;-44
2023/03/11 18:06:17;;;;;;;3.92;3.25;;;;;;;;;;5126474;27;20054;-45
2023/03/11 18:08:43;;;;;;;4.47;3.47;;;;;;;;;;5126497;27;20033;-44
2023/03/11 18:11:13;;;;;;;4.03;3.22;;;;;;;;;;5126456;27;20447;-45
2023/03/11 18:13:40;;;;;;;4.32;3.38;;;;;;;;;;5125130;27;20030;-45
2023/03/11 18:16:11;;;;;;;3.47;2.53;;;;;;;;;;5125928;27;20041;-44
2023/03/11 18:18:37;;;;;;;3.60;2.80;;;;;;;;;;5115220;27;20050;-45
2023/03/11 18:21:04;;;;;;;3.05;2.75;;;;;;;;;;5125578;27;20035;-46
2023/03/11 18:23:32;;;;;;;2.92;2.40;;;;;;;;;;5125927;27;20498;-47
2023/03/11 18:25:59;;;;;;;2.80;2.30;;;;;;;;;;5125135;27;20417;-47
2023/03/11 18:28:25;;;;;;;3.00;2.35;;;;;;;;;;5125442;27;20589;-45
2023/03/11 18:30:52;;;;;;;3.05;2.33;;;;;;;;;;5125633;27;20118;-44
2023/03/11 18:33:19;;;;;;;3.05;2.55;;;;;;;;;;5125753;27;20023;-44
2023/03/11 18:35:45;;;;;;;3.17;2.88;;;;;;;;;;5124871;27;20048;-44
2023/03/11 18:38:12;;;;;;;3.35;3.00;;;;;;;;;;5124793;27;20126;-45
2023/03/11 18:40:39;;;;;;;4.10;3.13;;;;;;;;;;5124935;27;20039;-46
2023/03/11 18:43:05;;;;;;;2.92;2.58;;;;;;;;;;5124513;27;20027;-44
2023/03/11 18:45:31;;;;;;;3.33;2.83;;;;;;;;;;5125035;27;20500;-45
2023/03/11 18:47:57;;;;;;;3.63;3.10;;;;;;;;;;5125145;27;20053;-46
2023/03/11 18:50:24;;;;;;;3.25;2.95;;;;;;;;;;5125109;27;20031;-43
2023/03/11 18:52:50;;;;;;;3.45;3.00;;;;;;;;;;5125837;27;20054;-44
2023/03/11 18:55:17;;;;;;;3.25;2.60;;;;;;;;;;5123987;27;20024;-44
2023/03/11 18:57:44;;;;;;;2.58;2.28;;;;;;;;;;5126127;27;20476;-44
2023/03/11 19:00:11;;;;;;;3.25;2.67;;;;;;;;;;5130189;27;20030;-44
2023/03/11 19:02:37;;;;;;;2.30;2.10;;;;;;;;;;5128743;27;20033;-44
2023/03/11 19:05:04;;;;;;;2.05;1.80;;;;;;;;;;5124591;27;20039;-46
2023/03/11 19:07:30;;;;;;;2.28;2.05;;;;;;;;;;5123402;27;20110;-48
2023/03/11 19:09:56;;;;;;;2.40;2.10;;;;;;;;;;5124290;27;20114;-46
2023/03/11 19:12:22;;;;;;;2.30;2.10;;;;;;;;;;5124364;27;20334;-44
2023/03/11 19:14:48;;;;;;;2.22;1.92;;;;;;;;;;5124963;27;20751;-44
2023/03/11 19:17:16;;;;;;;1.63;1.50;;;;;;;;;;5123909;27;20026;-46
2023/03/11 19:19:43;;;;;;;2.17;1.83;;;;;;;;;;5124972;27;20111;-45
2023/03/11 19:22:08;;;;;;;2.35;2.13;;;;;;;;;;5124323;27;20588;-44
2023/03/11 19:24:34;;;;;;;2.65;2.33;;;;;;;;;;5123801;27;20035;-44
2023/03/11 19:27:01;;;;;;;2.65;2.03;;;;;;;;;;5124377;27;20024;-44
2023/03/11 19:29:27;;;;;;;2.60;2.20;;;;;;;;;;5123942;27;20053;-45
2023/03/11 19:31:53;;;;;;;2.15;1.90;;;;;;;;;;5125107;27;20027;-46
2023/03/11 19:34:21;;;;;;;2.75;2.20;;;;;;;;;;5125572;27;20276;-46
2023/03/11 19:36:47;;;;;;;2.10;1.90;;;;;;;;;;5122545;27;20043;-45
2023/03/11 19:39:14;;;;;;;2.67;2.25;;;;;;;;;;5123046;28;20435;-44
2023/03/11 19:41:40;;;;;;;2.35;2.15;;;;;;;;;;5123847;27;20075;-46
2023/03/11 19:44:09;;;;;;;2.65;2.00;;;;;;;;;;5123658;27;20495;-45
2023/03/11 19:46:35;;;;;;;2.95;2.13;;;;;;;;;;5124610;28;20015;-44
2023/03/11 19:49:01;;;;;;;3.72;2.13;;;;;;;;;;5124688;28;20059;-44
2023/03/11 19:51:27;;;;;;;2.17;1.83;;;;;;;;;;5123352;28;20043;-44
2023/03/11 19:53:53;;;;;;;2.30;2.10;;;;;;;;;;5123729;27;20115;-44
2023/03/11 19:56:19;;;;;;;1.70;1.60;;;;;;;;;;5125156;28;20509;-44
2023/03/11 19:58:46;;;;;;;1.98;1.80;;;;;;;;;;5124435;28;20102;-44